Time;durP1;ratioP1;P1;durP2;ratioP2;P2;SDS_P1;SDS_P2;PMS_P1;PMS_P2;Temp;Humidity;BMP_temperature;BMP_pressure;BME280_temperature;BME280_humidity;BME280_pressure;Samples;Min_cycle;Max_cycle;Signal;HPM_P1;HPM_P2
2023/12/14 00:01:45;;;;;;;;;;;32.50;92.70;;;;;;4961860;28;19984;-74
2023/12/14 00:04:12;;;;;;;;;;;32.70;92.80;;;;;;4951018;28;19917;-71
2023/12/14 00:06:39;;;;;;;;;;;32.80;92.80;;;;;;4950528;28;19919;-74
2023/12/14 00:09:08;;;;;;;;;;;32.80;92.10;;;;;;4954329;28;19917;-72
2023/12/14 00:11:43;;;;;;;;;;;32.70;92.50;;;;;;4968194;28;19999;-72
2023/12/14 00:14:10;;;;;;;;;;;32.50;92.30;;;;;;4963319;28;19911;-73
2023/12/14 00:16:36;;;;;;;;;;;32.60;92.60;;;;;;4972895;28;20256;-73
2023/12/14 00:19:03;;;;;;;;;;;32.60;92.30;;;;;;4972997;28;20387;-72
2023/12/14 00:21:30;;;;;;;;;;;32.70;92.60;;;;;;4972547;28;19929;-76
2023/12/14 00:23:56;;;;;;;;;;;32.80;92.80;;;;;;4972695;28;19911;-72
2023/12/14 00:26:23;;;;;;;;;;;33.00;92.70;;;;;;4972416;28;19918;-72
2023/12/14 00:28:50;;;;;;;;;;;32.90;92.50;;;;;;4962447;28;19915;-71
2023/12/14 00:31:17;;;;;;;;;;;33.00;92.80;;;;;;4970538;28;19922;-74
2023/12/14 00:33:44;;;;;;;;;;;33.20;92.50;;;;;;4965802;28;19910;-77
2023/12/14 00:36:17;;;;;;;;;;;33.30;92.40;;;;;;4955541;28;19937;-72
2023/12/14 00:38:44;;;;;;;;;;;33.50;92.60;;;;;;4970868;28;19936;-77
2023/12/14 00:41:10;;;;;;;;;;;33.60;91.80;;;;;;4973592;28;19920;-74
2023/12/14 00:43:38;;;;;;;;;;;33.70;91.60;;;;;;4967772;28;19922;-72
2023/12/14 00:46:04;;;;;;;;;;;33.90;91.60;;;;;;4971376;28;19971;-72
2023/12/14 00:48:31;;;;;;;;;;;34.00;91.70;;;;;;4991459;28;19979;-71
2023/12/14 00:50:58;;;;;;;;;;;34.10;91.30;;;;;;4963705;28;19940;-75
2023/12/14 00:53:24;;;;;;;;;;;34.30;91.50;;;;;;4963519;28;19924;-71
2023/12/14 00:55:51;;;;;;;;;;;34.50;91.40;;;;;;4963149;28;19919;-73
2023/12/14 00:58:17;;;;;;;;;;;34.60;91.20;;;;;;4967520;28;19914;-72
2023/12/14 01:00:44;;;;;;;;;;;34.80;90.20;;;;;;4989683;28;19916;-72
2023/12/14 01:03:11;;;;;;;;;;;34.70;89.50;;;;;;5042008;28;19943;-72
2023/12/14 01:05:37;;;;;;;;;;;34.80;89.80;;;;;;5078068;28;19916;-73
2023/12/14 01:08:04;;;;;;;;;;;34.90;89.50;;;;;;5080100;28;19908;-74
2023/12/14 01:10:32;;;;;;;;;;;35.10;89.50;;;;;;5045051;28;19910;-73
2023/12/14 01:12:59;;;;;;;;;;;35.10;88.50;;;;;;4958103;28;19918;-80
2023/12/14 01:15:25;;;;;;;;;;;35.20;88.40;;;;;;4953297;28;19921;-74
2023/12/14 01:17:52;;;;;;;;;;;35.30;88.70;;;;;;4953346;28;19910;-76
2023/12/14 01:20:19;;;;;;;;;;;35.30;87.30;;;;;;4977624;28;19917;-74
2023/12/14 01:22:45;;;;;;;;;;;35.50;87.60;;;;;;4974446;28;19922;-74
2023/12/14 01:25:12;;;;;;;;;;;35.70;86.40;;;;;;4980322;28;19987;-74
2023/12/14 01:27:38;;;;;;;;;;;35.90;86.80;;;;;;4973287;28;19922;-77
2023/12/14 01:30:05;;;;;;;;;;;35.90;83.90;;;;;;4969792;28;19917;-74
2023/12/14 01:32:32;;;;;;;;;;;35.80;83.40;;;;;;4971964;28;19918;-77
2023/12/14 01:34:59;;;;;;;;;;;35.80;82.80;;;;;;4971662;28;19910;-76
2023/12/14 01:37:25;;;;;;;;;;;35.90;83.70;;;;;;4972074;28;19955;-73
2023/12/14 01:39:52;;;;;;;;;;;36.10;83.30;;;;;;5065370;28;19912;-72
2023/12/14 01:42:19;;;;;;;;;;;36.20;84.30;;;;;;4969389;28;19921;-72
2023/12/14 01:44:45;;;;;;;;;;;36.40;83.80;;;;;;4970818;28;19915;-73
2023/12/14 01:47:12;;;;;;;;;;;36.50;82.70;;;;;;4969885;28;19926;-73
2023/12/14 01:49:41;;;;;;;;;;;36.70;82.80;;;;;;4965474;28;19966;-80
2023/12/14 01:52:08;;;;;;;;;;;37.00;80.60;;;;;;4971260;28;19942;-72
2023/12/14 01:54:34;;;;;;;;;;;37.10;79.10;;;;;;4972068;28;19914;-72
2023/12/14 01:57:01;;;;;;;;;;;37.40;78.80;;;;;;4963618;28;19964;-75
2023/12/14 01:59:27;;;;;;;;;;;37.60;79.00;;;;;;4952105;28;19942;-74
2023/12/14 02:01:56;;;;;;;;;;;37.80;77.70;;;;;;4968723;28;19917;-73
2023/12/14 02:04:24;;;;;;;;;;;37.90;76.50;;;;;;4965101;28;19921;-72
2023/12/14 02:06:51;;;;;;;;;;;37.70;74.40;;;;;;4953395;28;20368;-74
2023/12/14 02:09:18;;;;;;;;;;;38.00;74.40;;;;;;4953293;28;19926;-71
2023/12/14 02:11:44;;;;;;;;;;;37.90;74.00;;;;;;4967233;28;19914;-72
2023/12/14 02:14:12;;;;;;;;;;;37.80;74.60;;;;;;4971379;28;19911;-72
2023/12/14 02:16:38;;;;;;;;;;;38.00;74.90;;;;;;4968683;28;19922;-75
2023/12/14 02:19:05;;;;;;;;;;;38.40;74.40;;;;;;4965913;28;19915;-73
2023/12/14 02:21:32;;;;;;;;;;;38.20;71.30;;;;;;4961235;28;20012;-72
2023/12/14 02:23:59;;;;;;;;;;;38.00;71.20;;;;;;4970819;28;19917;-72
2023/12/14 02:26:25;;;;;;;;;;;37.90;68.90;;;;;;4970351;28;19918;-74
2023/12/14 02:28:52;;;;;;;;;;;37.80;68.30;;;;;;4966787;28;20371;-76
2023/12/14 02:31:20;;;;;;;;;;;38.00;66.30;;;;;;4955540;28;19921;-74
2023/12/14 02:33:47;;;;;;;;;;;38.10;65.00;;;;;;4969294;28;19918;-77
2023/12/14 02:36:13;;;;;;;;;;;38.10;64.10;;;;;;4969228;28;19910;-70
2023/12/14 02:38:40;;;;;;;;;;;38.00;64.50;;;;;;4951736;28;20432;-70
2023/12/14 02:41:06;;;;;;;;;;;38.10;62.90;;;;;;4961776;28;19952;-71
2023/12/14 02:43:34;;;;;;;;;;;38.40;61.70;;;;;;4970829;28;20369;-71
2023/12/14 02:46:02;;;;;;;;;;;38.70;62.40;;;;;;4952167;28;19929;-79
2023/12/14 02:48:29;;;;;;;;;;;38.90;59.80;;;;;;4951381;28;20383;-73
2023/12/14 02:50:56;;;;;;;;;;;39.00;58.80;;;;;;4962872;28;19914;-74
2023/12/14 02:53:22;;;;;;;;;;;39.20;58.40;;;;;;4962007;28;19997;-74
2023/12/14 02:55:49;;;;;;;;;;;39.40;57.50;;;;;;4951591;28;20356;-75
2023/12/14 02:58:15;;;;;;;;;;;39.80;57.50;;;;;;4951822;28;19971;-72
2023/12/14 03:00:42;;;;;;;;;;;40.00;55.80;;;;;;4957567;28;19953;-75
2023/12/14 03:03:09;;;;;;;;;;;40.20;55.60;;;;;;4951717;28;20009;-73
2023/12/14 03:05:35;;;;;;;;;;;40.80;55.60;;;;;;4951476;28;20393;-71
2023/12/14 03:08:03;;;;;;;;;;;41.30;54.90;;;;;;4969387;28;20008;-71
2023/12/14 03:10:29;;;;;;;;;;;41.80;54.20;;;;;;4958117;28;19920;-72
2023/12/14 03:12:56;;;;;;;;;;;42.40;53.60;;;;;;4968231;28;19920;-73
2023/12/14 03:15:23;;;;;;;;;;;42.90;53.60;;;;;;4964891;28;20405;-73
2023/12/14 03:17:49;;;;;;;;;;;43.30;52.60;;;;;;4969847;28;19910;-74
2023/12/14 03:20:16;;;;;;;;;;;43.50;52.60;;;;;;4969637;28;20009;-78
2023/12/14 03:22:43;;;;;;;;;;;43.80;52.20;;;;;;4970317;28;20013;-76
2023/12/14 03:25:10;;;;;;;;;;;44.10;52.20;;;;;;4988507;28;20363;-79
2023/12/14 03:27:36;;;;;;;;;;;44.10;52.10;;;;;;5024329;28;19911;-71
2023/12/14 03:30:07;;;;;;;;;;;44.30;52.30;;;;;;4969580;28;19965;-77
2023/12/14 03:32:34;;;;;;;;;;;44.70;51.90;;;;;;4970069;28;19952;-72
2023/12/14 03:35:01;;;;;;;;;;;44.90;51.20;;;;;;4970557;28;19964;-79
2023/12/14 03:37:27;;;;;;;;;;;44.90;50.90;;;;;;4967440;28;19918;-71
2023/12/14 03:39:54;;;;;;;;;;;44.50;51.20;;;;;;4964835;28;19910;-76
2023/12/14 03:42:21;;;;;;;;;;;44.10;51.50;;;;;;4970644;28;19922;-72
2023/12/14 03:44:48;;;;;;;;;;;43.80;52.20;;;;;;4973419;28;19910;-73
2023/12/14 03:47:14;;;;;;;;;;;44.00;51.80;;;;;;4972886;28;19929;-71
2023/12/14 03:49:41;;;;;;;;;;;44.00;52.10;;;;;;4973930;28;19911;-73
2023/12/14 03:52:08;;;;;;;;;;;44.10;51.20;;;;;;4965036;28;19914;-74
2023/12/14 03:54:35;;;;;;;;;;;43.10;51.60;;;;;;4964450;28;19969;-70
2023/12/14 03:57:02;;;;;;;;;;;42.90;51.80;;;;;;4956364;28;19958;-73
2023/12/14 03:59:28;;;;;;;;;;;42.70;52.50;;;;;;4971310;28;20375;-74
2023/12/14 04:01:55;;;;;;;;;;;43.40;52.00;;;;;;4959673;28;19968;-76
2023/12/14 04:04:22;;;;;;;;;;;43.40;51.90;;;;;;4968220;28;19914;-71
2023/12/14 04:06:48;;;;;;;;;;;43.10;52.00;;;;;;4967419;28;19922;-70
2023/12/14 04:09:15;;;;;;;;;;;43.90;51.30;;;;;;4969718;28;19921;-71
2023/12/14 04:11:41;;;;;;;;;;;44.80;51.10;;;;;;4970074;28;19952;-72
2023/12/14 04:14:09;;;;;;;;;;;45.80;50.60;;;;;;4953873;28;19934;-71
2023/12/14 04:16:36;;;;;;;;;;;47.00;49.70;;;;;;4962563;28;19949;-71
2023/12/14 04:19:03;;;;;;;;;;;46.70;49.70;;;;;;4967319;28;19937;-71
2023/12/14 04:21:29;;;;;;;;;;;45.90;49.30;;;;;;4966810;28;19923;-73
2023/12/14 04:23:57;;;;;;;;;;;44.80;49.10;;;;;;4964659;28;19922;-73
2023/12/14 04:26:24;;;;;;;;;;;44.30;49.60;;;;;;4969122;28;19922;-71
2023/12/14 04:28:50;;;;;;;;;;;43.20;49.30;;;;;;4972211;28;19918;-73
2023/12/14 04:31:17;;;;;;;;;;;42.70;49.60;;;;;;4965070;28;19910;-73
2023/12/14 04:33:44;;;;;;;;;;;43.50;48.60;;;;;;4981660;28;19922;-70
2023/12/14 04:36:10;;;;;;;;;;;44.30;48.30;;;;;;4985194;28;19908;-72
2023/12/14 04:38:37;;;;;;;;;;;45.20;47.60;;;;;;5074262;28;19908;-78
2023/12/14 04:41:04;;;;;;;;;;;45.00;48.00;;;;;;4977313;28;19918;-73
2023/12/14 04:43:32;;;;;;;;;;;44.60;48.20;;;;;;4971334;28;20298;-72
2023/12/14 04:45:58;;;;;;;;;;;43.90;48.60;;;;;;4969390;28;19922;-72
2023/12/14 04:48:25;;;;;;;;;;;43.00;48.80;;;;;;4954701;28;19918;-76
2023/12/14 04:50:51;;;;;;;;;;;43.30;48.80;;;;;;4961497;28;19914;-72
2023/12/14 04:53:18;;;;;;;;;;;42.90;49.00;;;;;;5001894;28;20003;-78
2023/12/14 04:55:45;;;;;;;;;;;42.40;49.10;;;;;;4987329;28;19960;-69
2023/12/14 04:58:11;;;;;;;;;;;42.40;49.60;;;;;;4963883;28;19959;-71
2023/12/14 05:00:38;;;;;;;;;;;42.50;49.50;;;;;;4993473;28;19914;-75
2023/12/14 05:03:05;;;;;;;;;;;42.50;49.20;;;;;;5033012;28;19921;-73
2023/12/14 05:05:32;;;;;;;;;;;42.50;49.30;;;;;;4974355;28;19922;-73
2023/12/14 05:07:59;;;;;;;;;;;42.40;49.00;;;;;;4969754;28;19914;-74
2023/12/14 05:10:25;;;;;;;;;;;42.70;49.50;;;;;;4970621;28;19917;-75
2023/12/14 05:12:52;;;;;;;;;;;43.30;49.50;;;;;;4958034;28;20350;-71
2023/12/14 05:15:26;;;;;;;;;;;44.20;48.50;;;;;;4969218;28;19921;-81
2023/12/14 05:17:52;;;;;;;;;;;44.20;47.60;;;;;;4959925;28;19967;-79
2023/12/14 05:20:20;;;;;;;;;;;44.00;47.80;;;;;;4985902;28;19914;-82
2023/12/14 05:22:47;;;;;;;;;;;44.30;47.80;;;;;;4970521;28;19930;-82
2023/12/14 05:25:14;;;;;;;;;;;45.00;47.70;;;;;;5072003;28;19924;-72
2023/12/14 05:27:41;;;;;;;;;;;45.00;46.90;;;;;;5072258;28;19932;-79
2023/12/14 05:30:08;;;;;;;;;;;45.30;47.90;;;;;;4985249;28;19915;-72
2023/12/14 05:32:34;;;;;;;;;;;45.20;47.40;;;;;;4967536;28;19914;-74
2023/12/14 05:35:01;;;;;;;;;;;45.40;46.90;;;;;;4971425;28;19930;-77
2023/12/14 05:37:28;;;;;;;;;;;45.20;47.40;;;;;;4970917;28;19950;-74
2023/12/14 05:39:55;;;;;;;;;;;45.00;46.80;;;;;;5042920;28;19914;-72
2023/12/14 05:42:21;;;;;;;;;;;44.20;47.30;;;;;;4969658;28;19937;-73
2023/12/14 05:44:48;;;;;;;;;;;43.80;46.80;;;;;;4958361;28;19918;-72
2023/12/14 05:47:15;;;;;;;;;;;43.50;47.70;;;;;;4960878;28;20437;-75
2023/12/14 05:49:44;;;;;;;;;;;43.30;47.10;;;;;;4968117;28;19918;-77
2023/12/14 05:52:11;;;;;;;;;;;42.90;47.70;;;;;;4970106;28;19914;-73
2023/12/14 05:54:39;;;;;;;;;;;42.10;47.50;;;;;;4968073;28;19941;-72
2023/12/14 05:57:06;;;;;;;;;;;41.70;48.20;;;;;;4967309;28;20352;-72
2023/12/14 05:59:32;;;;;;;;;;;41.30;48.80;;;;;;4966192;28;20005;-73
2023/12/14 06:02:00;;;;;;;;;;;40.90;49.20;;;;;;4966785;28;19918;-72
2023/12/14 06:04:27;;;;;;;;;;;40.80;49.30;;;;;;4955504;28;19961;-79
2023/12/14 06:06:54;;;;;;;;;;;40.70;49.40;;;;;;4953388;28;19926;-79
2023/12/14 06:09:24;;;;;;;;;;;40.70;49.80;;;;;;4970891;28;19921;-75
2023/12/14 06:11:51;;;;;;;;;;;40.60;49.50;;;;;;4970220;28;19910;-78
2023/12/14 06:14:18;;;;;;;;;;;40.50;49.90;;;;;;5005831;28;20005;-83
2023/12/14 06:16:46;;;;;;;;;;;40.40;50.50;;;;;;4951764;28;20005;-78
2023/12/14 06:19:13;;;;;;;;;;;40.50;50.00;;;;;;4964502;28;19918;-74
2023/12/14 06:21:40;;;;;;;;;;;40.50;49.60;;;;;;4969723;28;19926;-74
2023/12/14 06:24:07;;;;;;;;;;;40.30;50.20;;;;;;4969610;28;20286;-80
2023/12/14 06:26:33;;;;;;;;;;;40.30;50.30;;;;;;4964326;28;19926;-77
2023/12/14 06:29:00;;;;;;;;;;;40.20;50.20;;;;;;4972400;28;20028;-80
2023/12/14 06:31:27;;;;;;;;;;;40.10;50.80;;;;;;4963694;28;19966;-73
2023/12/14 06:33:53;;;;;;;;;;;40.10;51.30;;;;;;4962367;28;20027;-73
2023/12/14 06:36:20;;;;;;;;;;;40.10;51.30;;;;;;4972850;28;19914;-73
2023/12/14 06:38:46;;;;;;;;;;;40.10;51.20;;;;;;4960459;28;20005;-76
2023/12/14 06:41:20;;;;;;;;;;;40.20;51.20;;;;;;4961092;28;19911;-74
2023/12/14 06:43:47;;;;;;;;;;;40.20;51.20;;;;;;4962408;28;19918;-73
2023/12/14 06:46:14;;;;;;;;;;;40.20;50.80;;;;;;4974283;28;20005;-74
2023/12/14 06:48:40;;;;;;;;;;;40.20;51.10;;;;;;4976394;28;19915;-80
2023/12/14 06:51:07;;;;;;;;;;;40.10;51.70;;;;;;4976443;28;19914;-73
2023/12/14 06:53:34;;;;;;;;;;;40.10;50.70;;;;;;4986473;28;20372;-74
2023/12/14 06:56:01;;;;;;;;;;;40.00;51.20;;;;;;4966300;28;20605;-71
2023/12/14 06:58:28;;;;;;;;;;;40.00;51.20;;;;;;4970327;28;20401;-74
2023/12/14 07:00:54;;;;;;;;;;;39.90;51.00;;;;;;4959806;28;19923;-73
2023/12/14 07:03:21;;;;;;;;;;;39.70;50.90;;;;;;4965343;28;19918;-76
2023/12/14 07:05:47;;;;;;;;;;;39.70;51.60;;;;;;4964216;28;19922;-75
2023/12/14 07:08:14;;;;;;;;;;;39.50;51.40;;;;;;4961986;28;19926;-75
2023/12/14 07:10:44;;;;;;;;;;;39.40;51.80;;;;;;4962284;28;19914;-76
2023/12/14 07:13:11;;;;;;;;;;;39.30;51.90;;;;;;4963690;28;19915;-78
2023/12/14 07:15:37;;;;;;;;;;;39.20;52.20;;;;;;4977627;28;20236;-77
2023/12/14 07:18:04;;;;;;;;;;;39.10;52.00;;;;;;4973424;28;19925;-80
2023/12/14 07:20:31;;;;;;;;;;;39.10;52.00;;;;;;4968133;28;19918;-73
2023/12/14 07:22:58;;;;;;;;;;;39.10;52.20;;;;;;4974181;28;19922;-73
2023/12/14 07:25:24;;;;;;;;;;;38.90;52.20;;;;;;4959206;28;19918;-75
2023/12/14 07:27:51;;;;;;;;;;;38.90;52.20;;;;;;4959197;28;19918;-73
2023/12/14 07:30:18;;;;;;;;;;;38.80;52.60;;;;;;4967061;28;19921;-73
2023/12/14 07:32:44;;;;;;;;;;;38.60;52.30;;;;;;4963202;28;20390;-73
2023/12/14 07:35:11;;;;;;;;;;;38.40;52.20;;;;;;4964343;28;19918;-82
2023/12/14 07:37:38;;;;;;;;;;;38.10;52.60;;;;;;4959525;28;20260;-76
2023/12/14 07:40:05;;;;;;;;;;;38.00;52.80;;;;;;4961160;28;19910;-81
2023/12/14 07:42:31;;;;;;;;;;;37.90;53.10;;;;;;4960043;28;19937;-74
2023/12/14 07:44:59;;;;;;;;;;;37.80;53.40;;;;;;4962617;28;19933;-73
2023/12/14 07:47:26;;;;;;;;;;;37.70;53.40;;;;;;4961837;28;20019;-72
2023/12/14 07:49:52;;;;;;;;;;;37.60;53.60;;;;;;4973292;28;19914;-75
2023/12/14 07:52:19;;;;;;;;;;;37.50;53.80;;;;;;4960204;28;19910;-72
2023/12/14 07:54:45;;;;;;;;;;;37.50;54.00;;;;;;4960273;28;20021;-73
2023/12/14 07:57:12;;;;;;;;;;;37.30;53.90;;;;;;4962934;28;19910;-73
2023/12/14 07:59:39;;;;;;;;;;;37.20;54.20;;;;;;4958443;28;19914;-79
2023/12/14 08:02:09;;;;;;;;;;;37.10;54.50;;;;;;4972475;28;19920;-85
2023/12/14 08:04:35;;;;;;;;;;;36.90;54.00;;;;;;4958760;28;19964;-73
2023/12/14 08:07:02;;;;;;;;;;;36.90;54.00;;;;;;4963729;28;19922;-76
2023/12/14 08:09:29;;;;;;;;;;;36.80;54.50;;;;;;4959354;28;20005;-80
2023/12/14 08:11:55;;;;;;;;;;;36.60;54.00;;;;;;4965720;28;19917;-81
2023/12/14 08:14:22;;;;;;;;;;;36.50;54.40;;;;;;4966998;28;19917;-72
2023/12/14 08:16:49;;;;;;;;;;;36.40;54.40;;;;;;4967020;28;19914;-73
2023/12/14 08:19:15;;;;;;;;;;;36.30;54.60;;;;;;4963291;28;20005;-74
2023/12/14 08:21:42;;;;;;;;;;;36.20;54.70;;;;;;4962000;28;19948;-73
2023/12/14 08:24:09;;;;;;;;;;;36.10;55.00;;;;;;4961472;28;19919;-79
2023/12/14 08:26:35;;;;;;;;;;;35.90;54.90;;;;;;4961829;28;19922;-80
2023/12/14 08:29:02;;;;;;;;;;;35.80;54.60;;;;;;4968703;28;19914;-74
2023/12/14 08:31:28;;;;;;;;;;;35.70;55.00;;;;;;4962114;28;19963;-74
2023/12/14 08:33:55;;;;;;;;;;;35.60;55.00;;;;;;4965014;28;20256;-75
2023/12/14 08:36:22;;;;;;;;;;;35.60;55.10;;;;;;4971794;28;20405;-72
2023/12/14 08:38:49;;;;;;;;;;;35.50;55.50;;;;;;4962209;28;19950;-73
2023/12/14 08:41:16;;;;;;;;;;;35.40;55.60;;;;;;4963025;28;20548;-72
2023/12/14 08:43:42;;;;;;;;;;;35.30;55.80;;;;;;4964117;28;19914;-73
2023/12/14 08:46:10;;;;;;;;;;;35.20;55.90;;;;;;4965369;28;20410;-81
2023/12/14 08:48:37;;;;;;;;;;;35.10;55.80;;;;;;4972506;28;20371;-72
2023/12/14 08:51:04;;;;;;;;;;;35.00;56.00;;;;;;4971425;28;19910;-74
2023/12/14 08:53:31;;;;;;;;;;;34.90;55.70;;;;;;4971357;28;20013;-75
2023/12/14 08:55:57;;;;;;;;;;;34.80;55.80;;;;;;4972185;28;19976;-72
2023/12/14 08:58:24;;;;;;;;;;;34.70;56.20;;;;;;4972252;28;19910;-74
2023/12/14 09:00:52;;;;;;;;;;;34.60;56.20;;;;;;4972080;28;19910;-75
2023/12/14 09:03:19;;;;;;;;;;;34.60;56.30;;;;;;4971508;28;19990;-73
2023/12/14 09:05:46;;;;;;;;;;;34.50;56.20;;;;;;4971499;28;19963;-73
2023/12/14 09:08:12;;;;;;;;;;;34.40;56.50;;;;;;4968716;28;19923;-73
2023/12/14 09:10:39;;;;;;;;;;;34.40;56.40;;;;;;4952711;28;19957;-73
2023/12/14 09:13:06;;;;;;;;;;;34.30;56.60;;;;;;4953103;28;19911;-73
2023/12/14 09:15:33;;;;;;;;;;;34.20;56.90;;;;;;4953331;28;19918;-73
2023/12/14 09:18:00;;;;;;;;;;;34.10;57.20;;;;;;4981935;28;19917;-74
2023/12/14 09:20:26;;;;;;;;;;;34.10;57.10;;;;;;4974878;28;20039;-74
2023/12/14 09:22:53;;;;;;;;;;;34.00;57.30;;;;;;4979168;28;19929;-73
2023/12/14 09:25:20;;;;;;;;;;;34.00;57.60;;;;;;4978508;28;19914;-74
2023/12/14 09:27:47;;;;;;;;;;;33.90;57.60;;;;;;4970162;28;19984;-73
2023/12/14 09:30:13;;;;;;;;;;;33.90;58.10;;;;;;4968796;28;19920;-76
2023/12/14 09:32:40;;;;;;;;;;;33.80;58.40;;;;;;4971491;28;20284;-74
2023/12/14 09:35:07;;;;;;;;;;;33.70;62.20;;;;;;4971767;28;19979;-76
2023/12/14 09:37:33;;;;;;;;;;;33.30;72.40;;;;;;4972090;28;20029;-77
2023/12/14 09:40:00;;;;;;;;;;;32.50;77.70;;;;;;4976313;28;19914;-75
2023/12/14 09:42:36;;;;;;;;;;;31.70;81.60;;;;;;4969985;28;20391;-78
2023/12/14 09:45:03;;;;;;;;;;;30.90;84.80;;;;;;4964951;28;19918;-74
2023/12/14 09:47:30;;;;;;;;;;;30.30;87.10;;;;;;4959628;28;20359;-73
2023/12/14 09:49:56;;;;;;;;;;;29.80;89.60;;;;;;4961378;28;19914;-76
2023/12/14 09:52:23;;;;;;;;;;;29.40;91.00;;;;;;4963576;28;19999;-79
2023/12/14 09:54:49;;;;;;;;;;;29.10;92.00;;;;;;4961710;28;20040;-74
2023/12/14 09:57:18;;;;;;;;;;;28.70;92.90;;;;;;4963810;28;19925;-72
2023/12/14 09:59:54;;;;;;;;;;;28.40;94.00;;;;;;4966651;28;19921;-82
2023/12/14 10:02:26;;;;;;;;;;;28.10;95.10;;;;;;4953232;28;19964;-75
2023/12/14 10:04:53;;;;;;;;;;;27.90;96.30;;;;;;4971757;28;19985;-73
2023/12/14 10:07:21;;;;;;;;;;;27.60;97.40;;;;;;4972033;28;19919;-78
2023/12/14 10:09:48;;;;;;;;;;;27.50;98.50;;;;;;4971765;28;19972;-74
2023/12/14 10:12:15;;;;;;;;;;;27.30;99.60;;;;;;4975450;28;19910;-80
2023/12/14 10:14:41;;;;;;;;;;;27.20;99.90;;;;;;4970665;28;19914;-82
2023/12/14 10:17:18;;;;;;;;;;;27.10;99.90;;;;;;4970761;28;19910;-85
2023/12/14 10:19:45;;;;;;;;;;;27.00;99.90;;;;;;4970867;28;19964;-75
2023/12/14 10:22:12;;;;;;;;;;;26.80;99.90;;;;;;4971843;28;19922;-76
2023/12/14 10:24:42;;;;;;;;;;;26.70;99.90;;;;;;4970116;28;19953;-75
2023/12/14 10:27:09;;;;;;;;;;;26.50;99.90;;;;;;4969868;28;19922;-77
2023/12/14 10:29:37;;;;;;;;;;;26.40;99.90;;;;;;4971167;28;19914;-81
2023/12/14 10:32:06;;;;;;;;;;;26.20;99.90;;;;;;4971720;28;19910;-78
2023/12/14 10:34:33;;;;;;;;;;;26.20;99.90;;;;;;4972776;28;19914;-75
2023/12/14 10:37:01;;;;;;;;;;;26.20;99.90;;;;;;4971959;28;20301;-79
2023/12/14 10:39:29;;;;;;;;;;;26.10;99.90;;;;;;4971700;28;19925;-76
2023/12/14 10:41:57;;;;;;;;;;;26.00;99.90;;;;;;4971558;28;19953;-75
2023/12/14 10:44:26;;;;;;;;;;;25.90;99.90;;;;;;4971873;28;19949;-79
2023/12/14 10:46:56;;;;;;;;;;;25.90;99.90;;;;;;4971951;28;19953;-80
2023/12/14 10:49:27;;;;;;;;;;;25.90;99.90;;;;;;4971705;28;19954;-79
2023/12/14 10:51:55;;;;;;;;;;;25.90;99.90;;;;;;4969199;28;19915;-80
2023/12/14 10:54:23;;;;;;;;;;;25.80;99.90;;;;;;4970479;28;20067;-74
2023/12/14 10:56:50;;;;;;;;;;;25.70;99.90;;;;;;4969601;28;19953;-82
2023/12/14 10:59:17;;;;;;;;;;;25.60;99.90;;;;;;4968739;28;19914;-75
2023/12/14 11:01:44;;;;;;;;;;;25.50;99.90;;;;;;4973090;28;19967;-77
2023/12/14 11:04:14;;;;;;;;;;;25.50;99.90;;;;;;4971719;28;20372;-76
2023/12/14 11:06:42;;;;;;;;;;;25.40;99.90;;;;;;4970089;28;19926;-76
2023/12/14 11:09:13;;;;;;;;;;;25.40;99.90;;;;;;4971418;28;20414;-77
2023/12/14 11:11:49;;;;;;;;;;;25.40;99.90;;;;;;4971240;28;19960;-72
2023/12/14 11:14:18;;;;;;;;;;;25.30;99.90;;;;;;4969323;28;20309;-78
2023/12/14 11:16:46;;;;;;;;;;;25.30;99.90;;;;;;4970069;28;20352;-71
2023/12/14 11:19:22;;;;;;;;;;;25.30;99.90;;;;;;4951707;28;20015;-76
2023/12/14 11:22:08;;;;;;;;;;;25.30;99.90;;;;;;4951766;28;19922;-78
2023/12/14 11:24:35;;;;;;;;;;;25.20;99.90;;;;;;4951993;28;20000;-71
2023/12/14 11:27:06;;;;;;;;;;;25.20;99.90;;;;;;4951386;28;19918;-76
2023/12/14 11:29:33;;;;;;;;;;;25.20;99.90;;;;;;4951581;28;19917;-75
2023/12/14 11:31:59;;;;;;;;;;;25.10;99.90;;;;;;4951747;28;20004;-79
2023/12/14 11:34:26;;;;;;;;;;;25.00;99.90;;;;;;4951487;28;20287;-77
2023/12/14 11:36:54;;;;;;;;;;;25.00;99.90;;;;;;4950491;28;19914;-76
2023/12/14 11:39:21;;;;;;;;;;;25.00;99.90;;;;;;4951805;28;20336;-75
2023/12/14 11:42:00;;;;;;;;;;;25.00;99.90;;;;;;4951422;28;19915;-74
2023/12/14 11:44:27;;;;;;;;;;;25.00;99.90;;;;;;4950491;28;19949;-74
2023/12/14 11:46:54;;;;;;;;;;;25.00;99.90;;;;;;4950253;28;19926;-75
2023/12/14 11:49:20;;;;;;;;;;;25.00;99.90;;;;;;4951735;28;20402;-75
2023/12/14 11:51:47;;;;;;;;;;;24.90;99.90;;;;;;4951804;28;20394;-76
2023/12/14 11:54:14;;;;;;;;;;;24.90;99.90;;;;;;4951647;28;19969;-73
2023/12/14 11:56:46;;;;;;;;;;;24.90;99.90;;;;;;4951136;28;19910;-74
2023/12/14 11:59:12;;;;;;;;;;;24.80;99.90;;;;;;4951145;28;19918;-74
2023/12/14 12:01:39;;;;;;;;;;;24.80;99.90;;;;;;4951293;28;19910;-75
2023/12/14 12:04:12;;;;;;;;;;;24.80;99.90;;;;;;4962442;28;19918;-74
2023/12/14 12:06:39;;;;;;;;;;;24.70;99.90;;;;;;4958222;28;20398;-74
2023/12/14 12:09:08;;;;;;;;;;;24.70;99.90;;;;;;4954327;28;19911;-78
2023/12/14 12:11:36;;;;;;;;;;;24.60;99.90;;;;;;4954157;28;19911;-74
2023/12/14 12:14:03;;;;;;;;;;;24.60;99.90;;;;;;4953613;28;19914;-74
2023/12/14 12:16:29;;;;;;;;;;;24.50;99.90;;;;;;4954282;28;19910;-76
2023/12/14 12:18:56;;;;;;;;;;;24.50;99.90;;;;;;4954225;28;19911;-76
2023/12/14 12:21:23;;;;;;;;;;;24.50;99.90;;;;;;4954306;28;20390;-74
2023/12/14 12:23:49;;;;;;;;;;;24.50;99.90;;;;;;4954348;28;20335;-75
2023/12/14 12:26:16;;;;;;;;;;;24.50;99.90;;;;;;4954150;28;19914;-73
2023/12/14 12:28:42;;;;;;;;;;;24.50;99.90;;;;;;4954439;28;19918;-75
2023/12/14 12:31:09;;;;;;;;;;;24.50;99.90;;;;;;4954296;28;20378;-75
2023/12/14 12:33:37;;;;;;;;;;;24.50;99.90;;;;;;4954929;28;19914;-76
2023/12/14 12:36:05;;;;;;;;;;;24.50;99.90;;;;;;4954392;28;19917;-74
2023/12/14 12:38:32;;;;;;;;;;;24.50;99.90;;;;;;4954210;28;19921;-73
2023/12/14 12:41:00;;;;;;;;;;;24.50;99.90;;;;;;4954269;28;20377;-71
2023/12/14 12:43:26;;;;;;;;;;;24.60;99.90;;;;;;4954171;28;19910;-77
2023/12/14 12:45:53;;;;;;;;;;;24.50;99.90;;;;;;4954466;28;19929;-74
2023/12/14 12:48:21;;;;;;;;;;;24.50;99.90;;;;;;4954376;28;19918;-75
2023/12/14 12:50:48;;;;;;;;;;;24.50;99.90;;;;;;4953995;28;19910;-76
2023/12/14 12:53:14;;;;;;;;;;;24.50;99.90;;;;;;4954216;28;19911;-77
2023/12/14 12:55:41;;;;;;;;;;;24.60;99.90;;;;;;4953952;28;19962;-76
2023/12/14 12:58:08;;;;;;;;;;;24.50;99.90;;;;;;4953997;28;19918;-76
2023/12/14 13:00:36;;;;;;;;;;;24.40;99.90;;;;;;4953866;28;19922;-75
2023/12/14 13:03:02;;;;;;;;;;;24.50;99.90;;;;;;4953944;28;19950;-76
2023/12/14 13:05:29;;;;;;;;;;;24.40;99.90;;;;;;4953663;28;19921;-75
2023/12/14 13:07:57;;;;;;;;;;;24.40;99.90;;;;;;4954137;28;19959;-75
2023/12/14 13:10:26;;;;;;;;;;;24.40;99.90;;;;;;4953867;28;19921;-76
2023/12/14 13:12:53;;;;;;;;;;;24.30;99.90;;;;;;4953746;28;20287;-75
2023/12/14 13:15:20;;;;;;;;;;;24.40;99.90;;;;;;4953479;28;19965;-74
2023/12/14 13:17:47;;;;;;;;;;;24.40;99.90;;;;;;4954265;28;19915;-76
2023/12/14 13:20:14;;;;;;;;;;;24.50;99.90;;;;;;4953932;28;19915;-74
2023/12/14 13:22:40;;;;;;;;;;;24.50;99.90;;;;;;4953675;28;20032;-74
2023/12/14 13:25:07;;;;;;;;;;;24.50;99.90;;;;;;4954277;28;19910;-74
2023/12/14 13:27:36;;;;;;;;;;;24.50;99.90;;;;;;4954178;28;20358;-75
2023/12/14 13:30:04;;;;;;;;;;;24.50;99.90;;;;;;4954075;28;19919;-75
2023/12/14 13:32:30;;;;;;;;;;;24.40;99.90;;;;;;4954610;28;19911;-73
2023/12/14 13:34:58;;;;;;;;;;;24.40;99.90;;;;;;4954889;28;19919;-76
2023/12/14 13:37:24;;;;;;;;;;;24.40;99.90;;;;;;4954997;28;20310;-77
2023/12/14 13:39:52;;;;;;;;;;;24.30;99.90;;;;;;4954792;28;19915;-75
2023/12/14 13:42:19;;;;;;;;;;;24.20;99.90;;;;;;4954193;28;20419;-73
2023/12/14 13:44:45;;;;;;;;;;;24.20;99.90;;;;;;4954212;28;19940;-74
2023/12/14 13:47:13;;;;;;;;;;;24.10;99.90;;;;;;4953427;28;20342;-74
2023/12/14 13:49:40;;;;;;;;;;;24.10;99.90;;;;;;4953373;28;19917;-74
2023/12/14 13:52:06;;;;;;;;;;;24.10;99.90;;;;;;4953367;28;19910;-76
2023/12/14 13:54:33;;;;;;;;;;;23.90;99.90;;;;;;4953319;28;20005;-73
2023/12/14 13:57:00;;;;;;;;;;;24.00;99.90;;;;;;4953256;28;20056;-73
2023/12/14 13:59:26;;;;;;;;;;;24.00;99.90;;;;;;4953002;28;19918;-75
2023/12/14 14:01:53;;;;;;;;;;;23.90;99.90;;;;;;4953122;28;19907;-75
2023/12/14 14:04:22;;;;;;;;;;;24.00;99.90;;;;;;4952985;28;19918;-74
2023/12/14 14:06:49;;;;;;;;;;;24.00;99.90;;;;;;4952988;28;19926;-77
2023/12/14 14:09:15;;;;;;;;;;;24.00;99.90;;;;;;4951680;28;20303;-75
2023/12/14 14:11:47;;;;;;;;;;;23.90;99.90;;;;;;4952702;28;19919;-75
2023/12/14 14:14:14;;;;;;;;;;;23.90;99.90;;;;;;4953000;28;19997;-75
2023/12/14 14:16:41;;;;;;;;;;;24.00;99.90;;;;;;4952351;28;19950;-75